Bullfrog, UT

5:41 PM MDT on September 19, 2014 (GMT -0600)
Page Municipal | Change Station
CLOSE
Current Station
Airport
Location: Page,
Elevation: 4308 ft
Nearby Weather Stations

Elev 4308 ft 36.92 °N, 111.45 °W | Updated 48 minutes ago

Clear
Clear
92 °F
Feels Like 92 °F
N
6
Wind Variable Wind from NNW

Today
High -- | Low -- °F
--% Chance of Precip.
Yesterday
High -- | Low -- °F
Precip. -- in
7:08 AM 7:24 PM
Waning Crescent, 16% visible
Pressure 29.73 in
Visibility 10.0 miles
Clouds Clear
Dew Point 46 °F
Humidity 21%
Rainfall 0.00 in
Snow Depth 1 in , 0 in , 0 in
UV 3 out of 12
Pollen 6.30 out of 12
Air Quality Not available.
Flu Activity Not available.
METAR KPGA 192253Z AUTO 34005KT 10SM CLR 33/08 A2994 RMK AO2 SLP066 T03330078

More Conditions Fewer Conditions

Pressure 29.73 in
Visibility 10.0 miles
Clouds Clear
Dew Point 46 °F
Humidity 21%
Rainfall 0.00 in
Snow Depth 1 in , 0 in , 0 in
UV 3 out of 12
Pollen 6.30 out of 12
Air Quality Not available.
Flu Activity Not available.
METAR KPGA 192253Z AUTO 34005KT 10SM CLR 33/08 A2994 RMK AO2 SLP066 T03330078

More Conditions Fewer Conditions

Nowcast | as of 5:23 PM MDT on September 19, 2014

Scattered showers along with isolated thunderstorms will continue over portions of south-central and east-central Utah this evening. The strongest storms at 515 PM were located east of Long Valley Junction...and over Fish Lake. Brief heavy rain...cloud to ground lightning...gusty winds and small hail are possible with some of these storms.

×

10-Day Weather Forecast

Almanac

Astronomy

Sep. 19, 2014 Rise Set
Actual Time 7:08 AM MDT 7:24 PM MDT
Civil Twilight 6:41 AM MDT 7:50 PM MDT
Nautical Twilight 6:11 AM MDT 8:21 PM MDT
Astronomical Twilight 5:39 AM MDT 8:52 PM MDT
Moon 3:00 AM MDT 4:51 PM MDT
Length of Visible Light 13h 08m
Length of Day
12h 16m
Tomorrow will be 2m 24s shorter.
Waning Crescent, 16% of the Moon is Illuminated
Today
Waning Crescent
Sep 24
New
Oct 1
First Quarter
Oct 8
Full
Oct 15
Last Quarter

Today's Extremes

State Highs State Lows

Community

WunderPhotos

Upload Photos

1,754,730 photos uploaded!

Nearby

Snow Depth

Station Depth Elevation
Lakefork #1 1 in 10100 ft
Ben Lomond Trail 0 in 6000 ft
Box Creek 0 in 9800 ft
Trial Lake 0 in 9960 ft
Rock Creek 0 in 7900 ft

Earthquake Activity

City Distance Mag. Time & Date
No recent earthquake activity has been reported nearby.
Minimum magnitude displayed is 2.5.

Coastal Water Temperatures

Place Temperature
No Stations Reporting

Nearby Weather Stations